Aviation Digital Data Service (ADDS)

Output produced by METARs form (0738 UTC 18 September 2021)
found at http://www.aviationweather.gov/metar/data/
 
Forecast for: MUHA (HAVANA/JOSE MAR , CU)
Text: MUHA 180500Z 1806/1906 VRB03KT 9000 SCT030
Forecast period: 0600 UTC 18 September 2021 to 0600 UTC 19 September 2021
Forecast type: FROM: standard forecast or significant change
Winds: variable direction winds at 3 MPH (3 knots; 1.5 m/s)
Visibility: 6 miles (9 km)
Ceiling: at least 12,000 feet AGL
Clouds: scattered clouds at 3000 feet AGL
Weather: no significant weather forecast for this period